sensor_id;sensor_type;location;lat;lon;timestamp;pressure;altitude;pressure_sealevel;temperature;humidity
51439;BME280;38816;51.142;-0.974;2023-03-24T00:00:18;98105.69;;;7.40;100.00
51439;BME280;38816;51.142;-0.974;2023-03-24T00:02:45;98099.72;;;7.33;100.00
51439;BME280;38816;51.142;-0.974;2023-03-24T00:05:13;98101.47;;;7.28;100.00
51439;BME280;38816;51.142;-0.974;2023-03-24T00:07:39;98115.91;;;7.33;100.00
51439;BME280;38816;51.142;-0.974;2023-03-24T00:10:12;98109.13;;;7.29;100.00
51439;BME280;38816;51.142;-0.974;2023-03-24T00:12:39;98110.81;;;7.33;100.00
51439;BME280;38816;51.142;-0.974;2023-03-24T00:15:10;98131.22;;;7.44;100.00
51439;BME280;38816;51.142;-0.974;2023-03-24T00:17:36;98126.94;;;7.49;100.00
51439;BME280;38816;51.142;-0.974;2023-03-24T00:20:06;98128.59;;;7.53;100.00
51439;BME280;38816;51.142;-0.974;2023-03-24T00:22:33;98132.00;;;7.57;100.00
51439;BME280;38816;51.142;-0.974;2023-03-24T00:24:59;98129.41;;;7.63;100.00
51439;BME280;38816;51.142;-0.974;2023-03-24T00:27:28;98120.03;;;7.59;100.00
51439;BME280;38816;51.142;-0.974;2023-03-24T00:29:54;98120.03;;;7.59;100.00
51439;BME280;38816;51.142;-0.974;2023-03-24T00:32:20;98131.09;;;7.64;100.00
51439;BME280;38816;51.142;-0.974;2023-03-24T00:34:45;98131.03;;;7.73;100.00
51439;BME280;38816;51.142;-0.974;2023-03-24T00:37:13;98142.09;;;7.77;100.00
51439;BME280;38816;51.142;-0.974;2023-03-24T00:39:40;98134.50;;;7.66;100.00
51439;BME280;38816;51.142;-0.974;2023-03-24T00:42:06;98150.66;;;7.70;100.00
51439;BME280;38816;51.142;-0.974;2023-03-24T00:44:32;98149.00;;;7.64;100.00
51439;BME280;38816;51.142;-0.974;2023-03-24T00:46:58;98136.28;;;7.47;100.00
51439;BME280;38816;51.142;-0.974;2023-03-24T00:49:26;98149.94;;;7.48;100.00
51439;BME280;38816;51.142;-0.974;2023-03-24T00:52:19;98164.44;;;7.46;100.00
51439;BME280;38816;51.142;-0.974;2023-03-24T00:54:47;98165.34;;;7.35;100.00
51439;BME280;38816;51.142;-0.974;2023-03-24T00:57:14;98157.72;;;7.19;100.00
51439;BME280;38816;51.142;-0.974;2023-03-24T00:59:49;98168.81;;;7.21;100.00
51439;BME280;38816;51.142;-0.974;2023-03-24T01:02:16;98178.19;;;7.17;100.00
51439;BME280;38816;51.142;-0.974;2023-03-24T01:04:44;98179.03;;;7.13;100.00
51439;BME280;38816;51.142;-0.974;2023-03-24T01:07:12;98185.84;;;7.11;100.00
51439;BME280;38816;51.142;-0.974;2023-03-24T01:09:37;98168.00;;;6.96;100.00
51439;BME280;38816;51.142;-0.974;2023-03-24T01:12:03;98171.44;;;6.89;100.00
51439;BME280;38816;51.142;-0.974;2023-03-24T01:14:29;98179.09;;;6.87;100.00
51439;BME280;38816;51.142;-0.974;2023-03-24T01:16:55;98181.69;;;6.76;100.00
51439;BME280;38816;51.142;-0.974;2023-03-24T01:19:21;98186.81;;;6.72;100.00
51439;BME280;38816;51.142;-0.974;2023-03-24T01:21:47;98178.31;;;6.62;100.00
51439;BME280;38816;51.142;-0.974;2023-03-24T01:24:15;98186.78;;;6.61;100.00
51439;BME280;38816;51.142;-0.974;2023-03-24T01:26:42;98197.03;;;6.58;100.00
51439;BME280;38816;51.142;-0.974;2023-03-24T01:29:07;98191.91;;;6.52;100.00
51439;BME280;38816;51.142;-0.974;2023-03-24T01:31:32;98198.72;;;6.51;100.00
51439;BME280;38816;51.142;-0.974;2023-03-24T01:33:58;98201.25;;;6.48;100.00
51439;BME280;38816;51.142;-0.974;2023-03-24T01:36:23;98213.19;;;6.45;100.00
51439;BME280;38816;51.142;-0.974;2023-03-24T01:38:49;98205.53;;;6.45;100.00
51439;BME280;38816;51.142;-0.974;2023-03-24T01:41:14;98207.22;;;6.47;100.00
51439;BME280;38816;51.142;-0.974;2023-03-24T01:43:39;98212.31;;;6.43;100.00
51439;BME280;38816;51.142;-0.974;2023-03-24T01:48:48;98218.28;;;6.49;100.00
51439;BME280;38816;51.142;-0.974;2023-03-24T01:53:56;98211.50;;;6.41;100.00
51439;BME280;38816;51.142;-0.974;2023-03-24T01:56:22;98224.25;;;6.47;100.00
51439;BME280;38816;51.142;-0.974;2023-03-24T01:58:54;98225.09;;;6.46;100.00
51439;BME280;38816;51.142;-0.974;2023-03-24T02:01:20;98233.59;;;6.51;100.00
51439;BME280;38816;51.142;-0.974;2023-03-24T02:03:46;98232.75;;;6.44;100.00
51439;BME280;38816;51.142;-0.974;2023-03-24T02:06:13;98231.03;;;6.37;100.00
51439;BME280;38816;51.142;-0.974;2023-03-24T02:08:50;98233.59;;;6.42;100.00
51439;BME280;38816;51.142;-0.974;2023-03-24T02:11:18;98241.25;;;6.34;100.00
51439;BME280;38816;51.142;-0.974;2023-03-24T02:13:43;98250.59;;;6.29;100.00
51439;BME280;38816;51.142;-0.974;2023-03-24T02:16:18;98252.28;;;6.21;100.00
51439;BME280;38816;51.142;-0.974;2023-03-24T02:27:43;98255.63;;;5.98;100.00
51439;BME280;38816;51.142;-0.974;2023-03-24T02:30:32;98257.31;;;5.98;100.00
51439;BME280;38816;51.142;-0.974;2023-03-24T02:38:43;98264.13;;;6.02;100.00
51439;BME280;38816;51.142;-0.974;2023-03-24T02:41:16;98259.91;;;6.05;100.00
51439;BME280;38816;51.142;-0.974;2023-03-24T02:44:02;98261.63;;;6.09;100.00
51439;BME280;38816;51.142;-0.974;2023-03-24T02:51:49;98265.00;;;6.05;100.00
51439;BME280;38816;51.142;-0.974;2023-03-24T02:54:30;98260.75;;;6.12;100.00
51439;BME280;38816;51.142;-0.974;2023-03-24T02:57:08;98254.00;;;6.22;100.00
51439;BME280;38816;51.142;-0.974;2023-03-24T02:59:48;98248.91;;;6.32;100.00
51439;BME280;38816;51.142;-0.974;2023-03-24T03:02:21;98245.53;;;6.40;100.00
51439;BME280;38816;51.142;-0.974;2023-03-24T03:04:54;98243.81;;;6.54;100.00
51439;BME280;38816;51.142;-0.974;2023-03-24T03:07:22;98254.03;;;6.72;100.00
51439;BME280;38816;51.142;-0.974;2023-03-24T03:10:19;98259.97;;;6.79;100.00
51439;BME280;38816;51.142;-0.974;2023-03-24T03:12:47;98246.38;;;6.77;100.00
51439;BME280;38816;51.142;-0.974;2023-03-24T03:15:18;98245.53;;;6.76;100.00
51439;BME280;38816;51.142;-0.974;2023-03-24T03:20:36;98252.31;;;6.90;100.00
51439;BME280;38816;51.142;-0.974;2023-03-24T03:23:07;98254.84;;;6.88;100.00
51439;BME280;38816;51.142;-0.974;2023-03-24T03:25:36;98245.50;;;6.92;100.00
51439;BME280;38816;51.142;-0.974;2023-03-24T03:28:07;98256.56;;;7.07;100.00
51439;BME280;38816;51.142;-0.974;2023-03-24T03:30:37;98259.94;;;7.14;100.00
51439;BME280;38816;51.142;-0.974;2023-03-24T03:33:08;98265.06;;;7.14;100.00
51439;BME280;38816;51.142;-0.974;2023-03-24T03:35:45;98259.97;;;7.03;100.00
51439;BME280;38816;51.142;-0.974;2023-03-24T03:41:11;98265.06;;;7.02;100.00
51439;BME280;38816;51.142;-0.974;2023-03-24T03:43:39;98265.06;;;6.97;100.00
51439;BME280;38816;51.142;-0.974;2023-03-24T03:46:05;98262.53;;;6.88;100.00
51439;BME280;38816;51.142;-0.974;2023-03-24T03:48:32;98249.75;;;6.79;100.00
51439;BME280;38816;51.142;-0.974;2023-03-24T03:50:58;98267.66;;;6.90;100.00
51439;BME280;38816;51.142;-0.974;2023-03-24T03:53:29;98265.06;;;6.88;100.00
51439;BME280;38816;51.142;-0.974;2023-03-24T03:55:56;98261.69;;;6.80;100.00
51439;BME280;38816;51.142;-0.974;2023-03-24T03:58:22;98259.13;;;6.75;100.00
51439;BME280;38816;51.142;-0.974;2023-03-24T04:00:47;98259.13;;;6.71;100.00
51439;BME280;38816;51.142;-0.974;2023-03-24T04:03:19;98257.44;;;6.71;100.00
51439;BME280;38816;51.142;-0.974;2023-03-24T04:06:08;98259.13;;;6.66;100.00
51439;BME280;38816;51.142;-0.974;2023-03-24T04:08:48;98264.22;;;6.57;100.00
51439;BME280;38816;51.142;-0.974;2023-03-24T04:14:48;98265.06;;;6.44;100.00
51439;BME280;38816;51.142;-0.974;2023-03-24T04:20:09;98262.47;;;6.21;100.00
51439;BME280;38816;51.142;-0.974;2023-03-24T04:25:19;98262.47;;;6.05;100.00
51439;BME280;38816;51.142;-0.974;2023-03-24T04:30:51;98287.97;;;6.07;100.00
51439;BME280;38816;51.142;-0.974;2023-03-24T04:33:26;98275.19;;;5.96;100.00
51439;BME280;38816;51.142;-0.974;2023-03-24T04:36:11;98278.59;;;6.00;100.00
51439;BME280;38816;51.142;-0.974;2023-03-24T04:38:46;98283.69;;;6.00;100.00
51439;BME280;38816;51.142;-0.974;2023-03-24T04:41:13;98276.81;;;5.88;100.00
51439;BME280;38816;51.142;-0.974;2023-03-24T04:43:42;98281.06;;;5.88;100.00
51439;BME280;38816;51.142;-0.974;2023-03-24T04:46:08;98284.47;;;5.90;100.00
51439;BME280;38816;51.142;-0.974;2023-03-24T04:48:34;98288.78;;;5.97;100.00
51439;BME280;38816;51.142;-0.974;2023-03-24T04:51:01;98304.13;;;6.04;100.00
51439;BME280;38816;51.142;-0.974;2023-03-24T04:53:27;98300.72;;;6.04;100.00
51439;BME280;38816;51.142;-0.974;2023-03-24T04:55:59;98307.53;;;6.16;100.00
51439;BME280;38816;51.142;-0.974;2023-03-24T04:58:26;98290.56;;;6.27;100.00
51439;BME280;38816;51.142;-0.974;2023-03-24T05:04:02;98301.66;;;6.37;100.00
51439;BME280;38816;51.142;-0.974;2023-03-24T05:06:29;98303.31;;;6.34;100.00
51439;BME280;38816;51.142;-0.974;2023-03-24T05:08:55;98296.50;;;6.24;100.00
51439;BME280;38816;51.142;-0.974;2023-03-24T05:11:23;98298.22;;;6.25;100.00
51439;BME280;38816;51.142;-0.974;2023-03-24T05:13:48;98302.47;;;6.17;100.00
51439;BME280;38816;51.142;-0.974;2023-03-24T05:16:14;98306.69;;;6.17;100.00
51439;BME280;38816;51.142;-0.974;2023-03-24T05:18:40;98322.00;;;6.20;100.00
51439;BME280;38816;51.142;-0.974;2023-03-24T05:21:05;98306.69;;;6.15;100.00
51439;BME280;38816;51.142;-0.974;2023-03-24T05:23:31;98319.47;;;6.24;100.00
51439;BME280;38816;51.142;-0.974;2023-03-24T05:25:57;98316.94;;;6.29;100.00
51439;BME280;38816;51.142;-0.974;2023-03-24T05:28:22;98329.75;;;6.40;100.00
51439;BME280;38816;51.142;-0.974;2023-03-24T05:30:48;98323.75;;;6.44;100.00
51439;BME280;38816;51.142;-0.974;2023-03-24T05:33:13;98315.25;;;6.42;100.00
51439;BME280;38816;51.142;-0.974;2023-03-24T05:35:38;98307.59;;;6.39;100.00
51439;BME280;38816;51.142;-0.974;2023-03-24T05:38:04;98312.72;;;6.48;100.00
51439;BME280;38816;51.142;-0.974;2023-03-24T05:40:30;98324.66;;;6.55;100.00
51439;BME280;38816;51.142;-0.974;2023-03-24T05:42:55;98323.78;;;6.47;100.00
51439;BME280;38816;51.142;-0.974;2023-03-24T05:45:20;98324.66;;;6.58;100.00
51439;BME280;38816;51.142;-0.974;2023-03-24T05:47:46;98310.19;;;6.60;100.00
51439;BME280;38816;51.142;-0.974;2023-03-24T05:50:12;98326.38;;;6.80;100.00
51439;BME280;38816;51.142;-0.974;2023-03-24T05:52:38;98312.75;;;6.78;100.00
51439;BME280;38816;51.142;-0.974;2023-03-24T05:55:03;98336.59;;;6.96;100.00
51439;BME280;38816;51.142;-0.974;2023-03-24T05:57:29;98329.78;;;7.10;100.00
51439;BME280;38816;51.142;-0.974;2023-03-24T05:59:55;98330.63;;;7.18;100.00
51439;BME280;38816;51.142;-0.974;2023-03-24T06:02:22;98331.47;;;7.28;100.00
51439;BME280;38816;51.142;-0.974;2023-03-24T06:04:48;98334.03;;;7.31;100.00
51439;BME280;38816;51.142;-0.974;2023-03-24T06:07:15;98340.84;;;7.30;100.00
51439;BME280;38816;51.142;-0.974;2023-03-24T06:09:40;98345.97;;;7.35;100.00
51439;BME280;38816;51.142;-0.974;2023-03-24T06:12:07;98353.63;;;7.36;100.00
51439;BME280;38816;51.142;-0.974;2023-03-24T06:14:33;98361.28;;;7.41;100.00
51439;BME280;38816;51.142;-0.974;2023-03-24T06:16:58;98351.91;;;7.45;100.00
51439;BME280;38816;51.142;-0.974;2023-03-24T06:19:25;98356.16;;;7.44;100.00
51439;BME280;38816;51.142;-0.974;2023-03-24T06:21:54;98357.88;;;7.36;100.00
51439;BME280;38816;51.142;-0.974;2023-03-24T06:24:19;98363.00;;;7.27;100.00
51439;BME280;38816;51.142;-0.974;2023-03-24T06:26:45;98365.53;;;7.19;100.00
51439;BME280;38816;51.142;-0.974;2023-03-24T06:29:15;98365.56;;;7.13;100.00
51439;BME280;38816;51.142;-0.974;2023-03-24T06:31:43;98346.81;;;6.97;100.00
51439;BME280;38816;51.142;-0.974;2023-03-24T06:34:08;98359.59;;;7.03;100.00
51439;BME280;38816;51.142;-0.974;2023-03-24T06:36:33;98372.38;;;7.13;100.00
51439;BME280;38816;51.142;-0.974;2023-03-24T06:39:00;98379.19;;;7.21;100.00
51439;BME280;38816;51.142;-0.974;2023-03-24T06:41:26;98385.16;;;7.26;100.00
51439;BME280;38816;51.142;-0.974;2023-03-24T06:43:52;98378.31;;;7.31;100.00
51439;BME280;38816;51.142;-0.974;2023-03-24T06:46:17;98376.63;;;7.36;100.00
51439;BME280;38816;51.142;-0.974;2023-03-24T06:48:43;98369.78;;;7.37;100.00
51439;BME280;38816;51.142;-0.974;2023-03-24T06:51:08;98373.22;;;7.36;100.00
51439;BME280;38816;51.142;-0.974;2023-03-24T06:53:34;98374.03;;;7.47;100.00
51439;BME280;38816;51.142;-0.974;2023-03-24T06:55:59;98377.44;;;7.60;100.00
51439;BME280;38816;51.142;-0.974;2023-03-24T06:58:25;98368.91;;;7.70;100.00
51439;BME280;38816;51.142;-0.974;2023-03-24T07:00:50;98361.25;;;7.70;100.00
51439;BME280;38816;51.142;-0.974;2023-03-24T07:03:16;98373.16;;;7.70;100.00
51439;BME280;38816;51.142;-0.974;2023-03-24T07:05:43;98359.56;;;7.57;100.00
51439;BME280;38816;51.142;-0.974;2023-03-24T07:08:10;98365.50;;;7.56;100.00
51439;BME280;38816;51.142;-0.974;2023-03-24T07:10:38;98358.72;;;7.49;100.00
51439;BME280;38816;51.142;-0.974;2023-03-24T07:13:04;98384.25;;;7.63;100.00
51439;BME280;38816;51.142;-0.974;2023-03-24T07:15:30;98367.22;;;7.58;100.00
51439;BME280;38816;51.142;-0.974;2023-03-24T07:17:55;98383.38;;;7.68;100.00
51439;BME280;38816;51.142;-0.974;2023-03-24T07:20:20;98380.81;;;7.74;100.00
51439;BME280;38816;51.142;-0.974;2023-03-24T07:22:46;98377.38;;;7.83;100.00
51439;BME280;38816;51.142;-0.974;2023-03-24T07:25:12;98361.19;;;7.82;100.00
51439;BME280;38816;51.142;-0.974;2023-03-24T07:27:38;98376.53;;;7.90;100.00
51439;BME280;38816;51.142;-0.974;2023-03-24T07:30:05;98369.69;;;7.91;100.00
51439;BME280;38816;51.142;-0.974;2023-03-24T07:32:31;98373.97;;;7.89;100.00
51439;BME280;38816;51.142;-0.974;2023-03-24T07:35:10;98370.53;;;7.91;100.00
51439;BME280;38816;51.142;-0.974;2023-03-24T07:37:36;98357.75;;;7.86;100.00
51439;BME280;38816;51.142;-0.974;2023-03-24T07:40:03;98373.09;;;8.02;100.00
51439;BME280;38816;51.142;-0.974;2023-03-24T07:42:35;98372.22;;;8.01;100.00
51439;BME280;38816;51.142;-0.974;2023-03-24T07:45:01;98366.25;;;7.99;100.00
51439;BME280;38816;51.142;-0.974;2023-03-24T07:47:26;98379.00;;;8.11;100.00
51439;BME280;38816;51.142;-0.974;2023-03-24T07:49:52;98374.72;;;8.13;100.00
51439;BME280;38816;51.142;-0.974;2023-03-24T07:52:17;98366.19;;;8.10;100.00
51439;BME280;38816;51.142;-0.974;2023-03-24T07:54:42;98375.56;;;8.25;100.00
51439;BME280;38816;51.142;-0.974;2023-03-24T07:57:08;98378.03;;;8.48;100.00
51439;BME280;38816;51.142;-0.974;2023-03-24T07:59:33;98384.66;;;8.81;100.00
51439;BME280;38816;51.142;-0.974;2023-03-24T08:01:59;98386.22;;;9.02;100.00
51439;BME280;38816;51.142;-0.974;2023-03-24T08:04:24;98377.66;;;9.06;100.00
51439;BME280;38816;51.142;-0.974;2023-03-24T08:06:52;98370.94;;;8.93;100.00
51439;BME280;38816;51.142;-0.974;2023-03-24T08:09:18;98387.13;;;8.96;100.00
51439;BME280;38816;51.142;-0.974;2023-03-24T08:11:43;98388.75;;;9.06;100.00
51439;BME280;38816;51.142;-0.974;2023-03-24T08:14:09;98379.28;;;9.19;100.00
51439;BME280;38816;51.142;-0.974;2023-03-24T08:16:34;98376.66;;;9.22;100.00
51439;BME280;38816;51.142;-0.974;2023-03-24T08:19:00;98379.28;;;9.19;100.00
51439;BME280;38816;51.142;-0.974;2023-03-24T08:21:25;98392.94;;;9.18;100.00
51439;BME280;38816;51.142;-0.974;2023-03-24T08:23:51;98390.31;;;9.23;100.00
51439;BME280;38816;51.142;-0.974;2023-03-24T08:26:17;98381.69;;;9.37;100.00
51439;BME280;38816;51.142;-0.974;2023-03-24T08:28:42;98361.91;;;9.49;100.00
51439;BME280;38816;51.142;-0.974;2023-03-24T08:31:08;98369.38;;;9.72;100.00
51439;BME280;38816;51.142;-0.974;2023-03-24T08:33:34;98377.81;;;9.83;100.00
51439;BME280;38816;51.142;-0.974;2023-03-24T08:35:59;98377.00;;;9.79;100.00
51439;BME280;38816;51.142;-0.974;2023-03-24T08:38:26;98372.72;;;9.77;100.00
51439;BME280;38816;51.142;-0.974;2023-03-24T08:40:56;98385.50;;;9.84;100.00
51439;BME280;38816;51.142;-0.974;2023-03-24T08:43:23;98396.50;;;9.96;100.00
51439;BME280;38816;51.142;-0.974;2023-03-24T08:45:50;98386.97;;;10.04;100.00
51439;BME280;38816;51.142;-0.974;2023-03-24T08:48:16;98414.13;;;10.29;100.00
51439;BME280;38816;51.142;-0.974;2023-03-24T08:50:41;98403.84;;;10.29;100.00
51439;BME280;38816;51.142;-0.974;2023-03-24T08:53:08;98411.72;;;10.14;100.00
51439;BME280;38816;51.142;-0.974;2023-03-24T08:55:35;98411.06;;;9.95;100.00
51439;BME280;38816;51.142;-0.974;2023-03-24T08:58:05;98406.09;;;9.78;100.00
51439;BME280;38816;51.142;-0.974;2023-03-24T09:00:31;98412.88;;;9.81;100.00
51439;BME280;38816;51.142;-0.974;2023-03-24T09:02:56;98409.47;;;9.80;100.00
51439;BME280;38816;51.142;-0.974;2023-03-24T09:05:23;98428.28;;;9.82;100.00
51439;BME280;38816;51.142;-0.974;2023-03-24T09:07:50;98426.53;;;9.87;100.00
51439;BME280;38816;51.142;-0.974;2023-03-24T09:10:16;98419.66;;;9.91;100.00
51439;BME280;38816;51.142;-0.974;2023-03-24T09:12:43;98408.50;;;9.94;100.00
51439;BME280;38816;51.142;-0.974;2023-03-24T09:15:11;98422.03;;;10.08;100.00
51439;BME280;38816;51.142;-0.974;2023-03-24T09:17:37;98431.44;;;10.09;100.00
51439;BME280;38816;51.142;-0.974;2023-03-24T09:20:06;98416.16;;;10.00;100.00
51439;BME280;38816;51.142;-0.974;2023-03-24T09:22:37;98433.22;;;9.99;100.00
51439;BME280;38816;51.142;-0.974;2023-03-24T09:25:02;98443.41;;;10.10;100.00
51439;BME280;38816;51.142;-0.974;2023-03-24T09:27:28;98432.16;;;10.25;100.00
51439;BME280;38816;51.142;-0.974;2023-03-24T09:29:53;98446.59;;;10.33;100.00
51439;BME280;38816;51.142;-0.974;2023-03-24T09:32:20;98437.91;;;10.44;100.00
51439;BME280;38816;51.142;-0.974;2023-03-24T09:34:45;98455.84;;;10.50;100.00
51439;BME280;38816;51.142;-0.974;2023-03-24T09:37:10;98447.16;;;10.60;100.00
51439;BME280;38816;51.142;-0.974;2023-03-24T09:39:36;98435.84;;;10.73;100.00
51439;BME280;38816;51.142;-0.974;2023-03-24T09:42:06;98456.03;;;11.01;100.00
51439;BME280;38816;51.142;-0.974;2023-03-24T09:44:36;98455.78;;;11.18;100.00
51439;BME280;38816;51.142;-0.974;2023-03-24T09:49:32;98461.97;;;11.60;100.00
51439;BME280;38816;51.142;-0.974;2023-03-24T09:52:05;98458.63;;;11.55;100.00
51439;BME280;38816;51.142;-0.974;2023-03-24T09:54:48;98454.53;;;11.45;100.00
51439;BME280;38816;51.142;-0.974;2023-03-24T09:57:21;98450.94;;;11.52;100.00
51439;BME280;38816;51.142;-0.974;2023-03-24T09:59:47;98459.16;;;11.75;100.00
51439;BME280;38816;51.142;-0.974;2023-03-24T10:02:18;98447.69;;;11.95;100.00
51439;BME280;38816;51.142;-0.974;2023-03-24T10:04:44;98458.09;;;11.88;100.00
51439;BME280;38816;51.142;-0.974;2023-03-24T10:07:23;98455.78;;;11.70;100.00
51439;BME280;38816;51.142;-0.974;2023-03-24T10:09:56;98451.50;;;11.72;100.00
51439;BME280;38816;51.142;-0.974;2023-03-24T10:12:39;98463.63;;;11.64;100.00
51439;BME280;38816;51.142;-0.974;2023-03-24T10:17:56;98467.59;;;11.31;100.00
51439;BME280;38816;51.142;-0.974;2023-03-24T10:23:02;98450.50;;;11.25;100.00
51439;BME280;38816;51.142;-0.974;2023-03-24T10:28:42;98463.25;;;10.71;100.00
51439;BME280;38816;51.142;-0.974;2023-03-24T10:31:11;98466.28;;;10.34;100.00
51439;BME280;38816;51.142;-0.974;2023-03-24T10:33:41;98460.59;;;10.02;100.00
51439;BME280;38816;51.142;-0.974;2023-03-24T10:36:13;98467.63;;;9.81;100.00
51439;BME280;38816;51.142;-0.974;2023-03-24T10:38:40;98465.22;;;9.63;100.00
51439;BME280;38816;51.142;-0.974;2023-03-24T10:41:06;98452.56;;;9.46;100.00
51439;BME280;38816;51.142;-0.974;2023-03-24T10:43:31;98452.63;;;9.38;100.00
51439;BME280;38816;51.142;-0.974;2023-03-24T10:45:58;98448.41;;;9.30;100.00
51439;BME280;38816;51.142;-0.974;2023-03-24T10:50:59;98459.59;;;9.13;100.00
51439;BME280;38816;51.142;-0.974;2023-03-24T10:53:24;98446.00;;;9.10;100.00
51439;BME280;38816;51.142;-0.974;2023-03-24T10:55:50;98447.66;;;9.12;100.00
51439;BME280;38816;51.142;-0.974;2023-03-24T10:58:39;98456.13;;;9.22;100.00
51439;BME280;38816;51.142;-0.974;2023-03-24T11:01:26;98448.38;;;9.33;100.00
51439;BME280;38816;51.142;-0.974;2023-03-24T11:04:01;98454.13;;;9.64;100.00
51439;BME280;38816;51.142;-0.974;2023-03-24T11:06:30;98451.38;;;9.84;100.00
51439;BME280;38816;51.142;-0.974;2023-03-24T11:09:16;98437.63;;;9.88;100.00
51439;BME280;38816;51.142;-0.974;2023-03-24T11:11:43;98445.28;;;9.93;100.00
51439;BME280;38816;51.142;-0.974;2023-03-24T11:14:42;98442.41;;;10.23;100.00
51439;BME280;38816;51.142;-0.974;2023-03-24T11:17:13;98444.72;;;10.48;100.00
51439;BME280;38816;51.142;-0.974;2023-03-24T11:19:56;98444.69;;;10.51;100.00
51439;BME280;38816;51.142;-0.974;2023-03-24T11:22:21;98457.38;;;10.61;100.00
51439;BME280;38816;51.142;-0.974;2023-03-24T11:24:53;98455.00;;;10.48;100.00
51439;BME280;38816;51.142;-0.974;2023-03-24T11:27:19;98443.16;;;10.34;100.00
51439;BME280;38816;51.142;-0.974;2023-03-24T11:29:51;98458.56;;;10.34;100.00
51439;BME280;38816;51.142;-0.974;2023-03-24T11:32:25;98447.16;;;10.57;100.00
51439;BME280;38816;51.142;-0.974;2023-03-24T11:35:15;98447.19;;;11.19;100.00
51439;BME280;38816;51.142;-0.974;2023-03-24T11:37:45;98425.94;;;11.60;100.00
51439;BME280;38816;51.142;-0.974;2023-03-24T11:40:21;98439.31;;;11.82;100.00
51439;BME280;38816;51.142;-0.974;2023-03-24T11:45:38;98449.53;;;11.34;100.00
51439;BME280;38816;51.142;-0.974;2023-03-24T11:50:37;98456.28;;;10.82;100.00
51439;BME280;38816;51.142;-0.974;2023-03-24T11:53:17;98414.56;;;10.63;100.00
51439;BME280;38816;51.142;-0.974;2023-03-24T11:56:23;98445.50;;;10.53;100.00
51439;BME280;38816;51.142;-0.974;2023-03-24T11:59:00;98426.16;;;10.21;100.00
51439;BME280;38816;51.142;-0.974;2023-03-24T12:01:32;98457.38;;;9.80;100.00
51439;BME280;38816;51.142;-0.974;2023-03-24T12:09:49;98490.72;;;8.22;100.00
51439;BME280;38816;51.142;-0.974;2023-03-24T12:15:42;98432.84;;;7.64;100.00
51439;BME280;38816;51.142;-0.974;2023-03-24T12:20:51;98451.59;;;7.72;100.00
51439;BME280;38816;51.142;-0.974;2023-03-24T12:24:03;98449.00;;;7.74;100.00
51439;BME280;38816;51.142;-0.974;2023-03-24T12:26:32;98439.63;;;7.90;100.00
51439;BME280;38816;51.142;-0.974;2023-03-24T12:31:49;98408.59;;;8.78;100.00
51439;BME280;38816;51.142;-0.974;2023-03-24T12:42:46;98403.25;;;10.04;100.00
51439;BME280;38816;51.142;-0.974;2023-03-24T12:53:32;98386.66;;;10.34;100.00
51439;BME280;38816;51.142;-0.974;2023-03-24T12:56:07;98366.47;;;10.70;100.00
51439;BME280;38816;51.142;-0.974;2023-03-24T12:58:57;98384.84;;;11.04;100.00
51439;BME280;38816;51.142;-0.974;2023-03-24T13:01:37;98368.63;;;10.98;100.00
51439;BME280;38816;51.142;-0.974;2023-03-24T13:04:10;98367.09;;;10.87;100.00
51439;BME280;38816;51.142;-0.974;2023-03-24T13:06:56;98371.31;;;11.46;100.00
51439;BME280;38816;51.142;-0.974;2023-03-24T13:09:38;98382.03;;;12.15;100.00
51439;BME280;38816;51.142;-0.974;2023-03-24T13:12:12;98376.06;;;12.55;100.00
51439;BME280;38816;51.142;-0.974;2023-03-24T13:14:47;98372.44;;;12.64;100.00
51439;BME280;38816;51.142;-0.974;2023-03-24T13:17:20;98379.81;;;12.40;100.00
51439;BME280;38816;51.142;-0.974;2023-03-24T13:19:48;98383.19;;;12.42;100.00
51439;BME280;38816;51.142;-0.974;2023-03-24T13:22:17;98378.63;;;12.15;100.00
51439;BME280;38816;51.142;-0.974;2023-03-24T13:24:45;98354.91;;;11.98;100.00
51439;BME280;38816;51.142;-0.974;2023-03-24T13:27:22;98380.66;;;11.98;100.00
51439;BME280;38816;51.142;-0.974;2023-03-24T13:32:42;98383.03;;;11.60;100.00
51439;BME280;38816;51.142;-0.974;2023-03-24T13:37:48;98362.19;;;11.74;100.00
51439;BME280;38816;51.142;-0.974;2023-03-24T13:40:23;98367.03;;;11.93;100.00
51439;BME280;38816;51.142;-0.974;2023-03-24T13:42:55;98384.09;;;12.00;100.00
51439;BME280;38816;51.142;-0.974;2023-03-24T13:48:14;98382.13;;;12.11;100.00
51439;BME280;38816;51.142;-0.974;2023-03-24T13:50:57;98372.25;;;12.33;100.00
51439;BME280;38816;51.142;-0.974;2023-03-24T13:53:36;98369.75;;;12.28;100.00
51439;BME280;38816;51.142;-0.974;2023-03-24T13:56:04;98359.22;;;12.40;100.00
51439;BME280;38816;51.142;-0.974;2023-03-24T13:59:28;98366.03;;;12.43;100.00
51439;BME280;38816;51.142;-0.974;2023-03-24T14:02:39;98360.91;;;12.41;100.00
51439;BME280;38816;51.142;-0.974;2023-03-24T14:05:15;98356.13;;;12.23;100.00
51439;BME280;38816;51.142;-0.974;2023-03-24T14:10:38;98354.50;;;12.19;100.00
51439;BME280;38816;51.142;-0.974;2023-03-24T14:13:18;98356.28;;;12.17;100.00
51439;BME280;38816;51.142;-0.974;2023-03-24T14:15:44;98365.31;;;11.95;100.00
51439;BME280;38816;51.142;-0.974;2023-03-24T14:23:44;98348.28;;;12.68;100.00
51439;BME280;38816;51.142;-0.974;2023-03-24T14:28:44;98362.22;;;12.98;100.00
51439;BME280;38816;51.142;-0.974;2023-03-24T14:39:39;98368.91;;;12.68;100.00
51439;BME280;38816;51.142;-0.974;2023-03-24T14:42:25;98366.00;;;12.45;100.00
51439;BME280;38816;51.142;-0.974;2023-03-24T14:44:52;98373.31;;;12.23;100.00
51439;BME280;38816;51.142;-0.974;2023-03-24T14:47:19;98368.66;;;12.40;100.00
51439;BME280;38816;51.142;-0.974;2023-03-24T14:49:47;98357.22;;;12.52;100.00
51439;BME280;38816;51.142;-0.974;2023-03-24T14:52:19;98354.25;;;12.72;100.00
51439;BME280;38816;51.142;-0.974;2023-03-24T14:55:06;98365.53;;;12.66;100.00
51439;BME280;38816;51.142;-0.974;2023-03-24T14:57:39;98349.50;;;12.52;100.00
51439;BME280;38816;51.142;-0.974;2023-03-24T15:00:18;98363.19;;;12.55;100.00
51439;BME280;38816;51.142;-0.974;2023-03-24T15:02:48;98363.81;;;12.26;100.00
51439;BME280;38816;51.142;-0.974;2023-03-24T15:05:29;98355.25;;;12.24;100.00